Time;durP1;ratioP1;P1;durP2;ratioP2;P2;SDS_P1;SDS_P2;PMS_P1;PMS_P2;Temp;Humidity;BMP_temperature;BMP_pressure;BME280_temperature;BME280_humidity;BME280_pressure;Samples;Min_cycle;Max_cycle;Signal;HPM_P1;HPM_P2
2021/09/30 00:02:00;;;;;;;4.43;1.33;;;10.10;92.10;;;;;;4986461;28;20492;-76
2021/09/30 00:04:26;;;;;;;9.90;1.60;;;10.10;92.10;;;;;;4985786;28;20605;-77
2021/09/30 00:06:51;;;;;;;9.65;1.70;;;10.10;92.10;;;;;;4986096;28;20034;-76
2021/09/30 00:09:17;;;;;;;6.40;1.48;;;10.10;92.10;;;;;;4989401;28;20035;-77
2021/09/30 00:11:47;;;;;;;4.60;1.30;;;10.10;92.10;;;;;;4988132;28;20038;-76
2021/09/30 00:14:27;;;;;;;6.90;1.42;;;10.10;92.10;;;;;;4971123;28;20130;-76
2021/09/30 00:33:20;;;;;;;2.38;1.27;;;10.00;92.10;;;;;;4984096;28;20049;-76
2021/09/30 00:35:58;;;;;;;5.50;1.30;;;10.00;92.10;;;;;;4997948;28;20031;-76
2021/09/30 00:41:22;;;;;;;4.22;1.40;;;9.90;92.10;;;;;;4986234;28;20033;-77
2021/09/30 00:46:49;;;;;;;7.45;1.50;;;9.90;92.10;;;;;;4987101;28;20029;-77
2021/09/30 00:49:26;;;;;;;4.32;1.50;;;9.90;92.10;;;;;;4973893;28;20037;-77
2021/09/30 03:00:29;;;;;;;6.45;1.45;;;9.30;92.30;;;;;;4988810;28;20030;-77
2021/09/30 03:02:56;;;;;;;7.82;1.73;;;9.30;92.40;;;;;;4990281;28;20052;-77
2021/09/30 03:05:23;;;;;;;6.25;1.80;;;9.30;92.40;;;;;;4993691;28;20055;-77
2021/09/30 03:07:52;;;;;;;6.80;1.73;;;9.30;92.30;;;;;;4988337;28;20061;-77
2021/09/30 03:10:19;;;;;;;;;;;9.20;92.30;;;;;;4987419;28;20499;-76
2021/09/30 03:12:47;;;;;;;9.57;1.83;;;9.20;92.30;;;;;;4987717;28;19962;-76
2021/09/30 03:17:55;;;;;;;6.18;1.67;;;9.20;92.40;;;;;;4987049;28;20046;-77
2021/09/30 03:20:42;;;;;;;6.18;2.13;;;9.20;92.40;;;;;;4987461;28;20031;-76
2021/09/30 03:23:15;;;;;;;11.63;1.85;;;9.20;92.40;;;;;;4985944;28;20795;-77
2021/09/30 03:25:46;;;;;;;5.72;1.80;;;9.20;92.30;;;;;;4988888;28;20108;-76
2021/09/30 03:28:12;;;;;;;5.78;2.03;;;9.20;92.30;;;;;;4991706;28;20039;-77
2021/09/30 03:30:38;;;;;;;7.93;2.00;;;9.20;92.30;;;;;;4991359;28;20053;-76
2021/09/30 03:33:07;;;;;;;9.40;2.33;;;9.10;92.30;;;;;;4989535;28;20740;-76
2021/09/30 03:35:34;;;;;;;13.45;1.70;;;9.10;92.40;;;;;;4986345;28;20058;-76
2021/09/30 03:38:01;;;;;;;8.75;1.75;;;9.10;92.60;;;;;;4987852;28;20039;-76
2021/09/30 03:40:27;;;;;;;8.13;1.73;;;9.10;92.30;;;;;;4987972;28;20130;-76
2021/09/30 03:42:53;;;;;;;10.60;1.92;;;9.10;92.30;;;;;;4987434;28;20550;-76
2021/09/30 03:45:18;;;;;;;6.75;1.77;;;9.10;92.30;;;;;;4987826;28;20108;-76
2021/09/30 03:47:44;;;;;;;6.95;2.03;;;9.00;92.30;;;;;;4988137;28;20062;-77
2021/09/30 03:50:16;;;;;;;8.75;1.50;;;9.00;92.30;;;;;;4988986;28;20065;-76
2021/09/30 04:00:56;;;;;;;8.85;1.48;;;8.90;92.30;;;;;;4933605;29;20612;-76
2021/09/30 04:03:22;;;;;;;8.65;1.77;;;8.90;92.30;;;;;;4963119;28;20122;-76
2021/09/30 04:05:48;;;;;;;7.20;1.65;;;8.90;92.30;;;;;;4987771;28;20106;-76
2021/09/30 04:08:13;;;;;;;4.65;1.75;;;8.90;92.30;;;;;;4992656;28;20796;-76
2021/09/30 04:10:39;;;;;;;5.85;1.70;;;8.80;92.20;;;;;;4987897;28;20042;-77
2021/09/30 04:13:05;;;;;;;9.45;2.00;;;8.80;92.20;;;;;;4971214;28;20050;-76
2021/09/30 04:15:30;;;;;;;4.95;1.55;;;8.80;92.20;;;;;;4987478;28;20030;-76
2021/09/30 04:17:56;;;;;;;6.68;1.77;;;8.80;92.20;;;;;;4989192;28;20038;-76
2021/09/30 04:20:22;;;;;;;5.45;1.45;;;8.80;92.20;;;;;;4989606;28;20027;-76
2021/09/30 04:22:48;;;;;;;6.18;1.55;;;8.70;92.40;;;;;;4988777;28;20037;-76
2021/09/30 04:25:14;;;;;;;9.45;1.60;;;8.70;92.20;;;;;;4987833;28;20030;-76
2021/09/30 04:27:39;;;;;;;7.43;1.80;;;8.70;92.30;;;;;;4988379;28;20034;-76
2021/09/30 04:30:06;;;;;;;5.28;1.40;;;8.70;92.30;;;;;;4972208;28;20053;-77
2021/09/30 04:32:32;;;;;;;6.15;1.65;;;8.70;92.30;;;;;;4988255;28;20026;-76
2021/09/30 04:34:57;;;;;;;5.15;1.52;;;8.70;92.30;;;;;;4988296;28;20487;-76
2021/09/30 04:37:25;;;;;;;6.10;1.55;;;8.70;92.30;;;;;;4986712;28;20474;-76
2021/09/30 04:39:51;;;;;;;6.70;1.60;;;8.70;92.20;;;;;;4987552;28;20022;-76
2021/09/30 04:42:17;;;;;;;4.40;1.40;;;8.70;92.30;;;;;;4991614;28;20462;-76
2021/09/30 04:44:42;;;;;;;7.47;1.45;;;8.60;92.30;;;;;;4990926;28;20030;-76
2021/09/30 04:47:08;;;;;;;5.78;1.55;;;8.60;92.30;;;;;;4994124;28;20031;-76
2021/09/30 04:49:33;;;;;;;3.90;1.33;;;8.60;92.30;;;;;;4991667;28;20388;-76
2021/09/30 04:51:59;;;;;;;7.72;1.77;;;8.60;92.30;;;;;;4972283;28;20034;-76
2021/09/30 04:54:25;;;;;;;5.07;1.42;;;8.60;92.30;;;;;;5000642;28;20027;-76
2021/09/30 04:56:50;;;;;;;9.68;1.48;;;8.60;92.30;;;;;;4978966;28;20054;-76
2021/09/30 04:59:16;;;;;;;8.93;1.95;;;8.60;92.30;;;;;;4994680;28;20041;-76
2021/09/30 05:01:42;;;;;;;7.53;1.52;;;8.60;92.30;;;;;;4989680;28;20057;-76
2021/09/30 05:04:07;;;;;;;3.72;1.05;;;8.50;92.20;;;;;;4993468;28;20029;-77
2021/09/30 05:06:33;;;;;;;9.82;2.00;;;8.50;92.20;;;;;;4973546;28;20057;-76
2021/09/30 05:09:00;;;;;;;4.82;1.40;;;8.50;92.20;;;;;;4989131;28;20410;-76
2021/09/30 05:11:38;;;;;;;5.57;1.67;;;8.50;92.20;;;;;;4989930;28;20121;-77
2021/09/30 05:14:06;;;;;;;4.00;1.42;;;8.50;92.20;;;;;;4993718;28;20113;-76
2021/09/30 05:16:32;;;;;;;5.27;1.47;;;8.40;92.20;;;;;;5002885;28;20047;-77
2021/09/30 05:18:59;;;;;;;4.22;1.63;;;8.40;92.20;;;;;;4978656;28;20031;-77
2021/09/30 05:21:24;;;;;;;7.97;2.05;;;8.40;92.20;;;;;;4972725;28;20033;-76
2021/09/30 05:23:51;;;;;;;4.97;1.50;;;8.40;92.20;;;;;;4989188;28;20034;-77
2021/09/30 05:26:17;;;;;;;5.35;1.67;;;8.40;92.20;;;;;;4990849;28;20027;-76
2021/09/30 05:28:43;;;;;;;8.05;1.70;;;8.40;92.20;;;;;;4989384;28;20509;-76
2021/09/30 05:31:08;;;;;;;3.85;1.52;;;8.40;92.30;;;;;;4990667;28;20026;-76
2021/09/30 05:33:34;;;;;;;6.40;1.70;;;8.40;92.30;;;;;;4991032;28;20026;-76
2021/09/30 05:36:00;;;;;;;6.63;1.70;;;8.30;92.30;;;;;;4971759;28;20495;-76
2021/09/30 05:38:26;;;;;;;4.03;1.85;;;8.40;92.30;;;;;;4990269;28;20132;-76
2021/09/30 05:40:52;;;;;;;8.43;1.63;;;8.40;92.30;;;;;;4990277;28;20403;-76
2021/09/30 05:43:42;;;;;;;6.95;1.40;;;8.40;92.40;;;;;;4994614;28;20606;-76
2021/09/30 05:46:05;;;;;;;6.03;1.73;;;8.40;92.40;;;;;;4988348;28;20046;-76
2021/09/30 05:48:31;;;;;;;6.28;2.20;;;8.40;92.40;;;;;;4991127;28;20034;-76
2021/09/30 05:50:58;;;;;;;5.93;1.92;;;8.40;92.30;;;;;;4991400;28;20118;-76
2021/09/30 05:53:24;;;;;;;8.48;1.80;;;8.40;92.40;;;;;;4991347;28;20045;-76
2021/09/30 05:55:50;;;;;;;9.52;2.08;;;8.40;92.70;;;;;;4991493;28;20027;-76
2021/09/30 05:58:16;;;;;;;9.23;2.38;;;8.40;92.50;;;;;;5024351;28;20103;-76
2021/09/30 06:09:34;;;;;;;;;;;8.50;92.40;;;;;;4981187;28;20038;-76
2021/09/30 06:14:25;;;;;;;7.18;2.30;;;8.60;92.40;;;;;;5003354;28;20062;-76
2021/09/30 06:16:51;;;;;;;8.65;2.47;;;8.60;92.40;;;;;;5008836;28;20022;-75
2021/09/30 06:19:22;;;;;;;7.50;2.40;;;8.60;92.40;;;;;;5002106;28;20060;-75
2021/09/30 06:21:49;;;;;;;11.35;2.13;;;8.70;92.40;;;;;;5009591;28;20044;-76
2021/09/30 06:24:20;;;;;;;6.47;2.22;;;8.70;92.40;;;;;;5000209;28;20041;-76
2021/09/30 06:26:46;;;;;;;7.68;2.58;;;8.80;92.50;;;;;;4995409;28;20023;-76
2021/09/30 06:29:12;;;;;;;14.65;2.65;;;8.80;92.40;;;;;;5000887;28;20049;-76
2021/09/30 06:31:38;;;;;;;7.07;2.00;;;8.90;92.50;;;;;;4992584;28;20030;-75
2021/09/30 06:34:04;;;;;;;7.90;2.25;;;8.90;92.50;;;;;;4991072;28;20027;-76
2021/09/30 06:36:31;;;;;;;10.23;2.80;;;9.00;92.50;;;;;;4996483;28;20040;-76
2021/09/30 06:38:56;;;;;;;9.95;2.90;;;9.00;92.40;;;;;;4988932;28;20558;-76
2021/09/30 06:41:22;;;;;;;7.28;2.28;;;9.10;92.40;;;;;;4991435;28;20109;-76
2021/09/30 06:43:48;;;;;;;10.63;2.53;;;9.10;92.30;;;;;;4983798;28;20080;-76
2021/09/30 06:46:13;;;;;;;8.70;2.45;;;9.20;92.30;;;;;;4972406;28;20042;-75
2021/09/30 06:48:39;;;;;;;10.93;2.45;;;9.30;92.30;;;;;;4988140;28;20038;-76
2021/09/30 06:51:05;;;;;;;10.82;3.05;;;9.30;92.20;;;;;;4988468;28;20052;-76
2021/09/30 06:53:30;;;;;;;10.88;3.17;;;9.40;92.20;;;;;;4993114;28;20440;-76
2021/09/30 06:56:02;;;;;;;7.38;2.92;;;9.50;92.10;;;;;;5008458;28;20544;-76
2021/09/30 06:58:28;;;;;;;8.80;2.60;;;9.60;92.00;;;;;;5006457;28;20053;-76
2021/09/30 07:00:56;;;;;;;11.95;3.47;;;9.70;91.90;;;;;;5004050;28;20033;-75
2021/09/30 07:03:28;;;;;;;11.63;3.38;;;9.80;91.80;;;;;;5004592;28;20105;-76
2021/09/30 07:05:53;;;;;;;16.58;3.30;;;9.90;91.70;;;;;;4988812;28;20030;-76
2021/09/30 07:08:21;;;;;;;8.23;2.60;;;10.00;91.60;;;;;;5016914;28;20112;-76
2021/09/30 07:10:47;;;;;;;9.05;2.60;;;10.20;91.50;;;;;;5009331;28;20057;-76
2021/09/30 07:13:13;;;;;;;17.40;3.22;;;10.30;91.60;;;;;;5001304;28;20062;-76
2021/09/30 07:15:39;;;;;;;10.82;3.45;;;10.40;90.90;;;;;;4987846;28;20046;-76
2021/09/30 07:18:12;;;;;;;12.05;3.47;;;10.60;90.90;;;;;;4989694;28;20042;-76
2021/09/30 07:20:38;;;;;;;14.45;3.17;;;10.70;90.40;;;;;;4999523;28;20034;-76
2021/09/30 07:23:04;;;;;;;10.23;3.15;;;10.70;90.50;;;;;;4991095;28;20037;-76
2021/09/30 07:25:29;;;;;;;12.38;3.15;;;10.80;90.40;;;;;;4989198;28;20038;-76
2021/09/30 07:27:55;;;;;;;7.82;2.95;;;10.90;90.50;;;;;;4988242;28;20045;-76
2021/09/30 07:30:21;;;;;;;8.38;2.72;;;11.00;90.50;;;;;;5000885;28;20054;-76
2021/09/30 07:32:46;;;;;;;9.57;3.50;;;11.10;90.40;;;;;;4972788;28;20388;-76
2021/09/30 07:35:12;;;;;;;11.35;2.80;;;11.20;90.30;;;;;;4996388;28;20072;-76
2021/09/30 07:37:38;;;;;;;14.02;3.40;;;11.20;90.30;;;;;;5009141;28;20121;-76
2021/09/30 07:40:04;;;;;;;9.95;2.80;;;11.30;90.20;;;;;;4991144;28;20029;-76
2021/09/30 07:42:30;;;;;;;12.10;3.75;;;11.40;90.10;;;;;;4998069;28;20030;-75
2021/09/30 07:44:56;;;;;;;12.27;3.53;;;11.50;89.80;;;;;;4988270;28;20059;-76
2021/09/30 07:47:24;;;;;;;10.73;3.80;;;11.50;89.70;;;;;;4989342;28;20495;-76
2021/09/30 07:49:50;;;;;;;10.57;3.58;;;11.60;89.20;;;;;;4989288;28;20029;-76
2021/09/30 07:52:16;;;;;;;9.88;2.90;;;11.60;89.30;;;;;;4999424;28;20116;-76
2021/09/30 07:54:41;;;;;;;13.13;3.55;;;11.60;89.40;;;;;;5007731;28;20534;-76
2021/09/30 07:57:07;;;;;;;13.88;3.60;;;11.70;89.20;;;;;;4999307;28;20031;-76
2021/09/30 07:59:33;;;;;;;15.27;3.65;;;11.70;89.30;;;;;;4988014;28;20054;-75
2021/09/30 08:01:59;;;;;;;13.32;3.08;;;11.70;89.50;;;;;;4992834;28;20129;-76
2021/09/30 08:04:24;;;;;;;10.13;3.50;;;11.80;89.40;;;;;;4989218;28;20023;-76
2021/09/30 08:06:50;;;;;;;10.77;2.92;;;11.90;88.70;;;;;;4987866;28;20460;-75
2021/09/30 08:09:16;;;;;;;14.57;4.05;;;12.00;88.60;;;;;;4992328;28;20110;-76
2021/09/30 08:11:41;;;;;;;14.68;3.50;;;12.10;88.10;;;;;;4990393;28;20430;-76
2021/09/30 08:14:07;;;;;;;11.65;3.17;;;12.30;87.80;;;;;;4972531;28;20041;-76
2021/09/30 08:16:33;;;;;;;10.15;3.45;;;12.40;87.20;;;;;;5007693;28;20075;-76
2021/09/30 08:18:58;;;;;;;12.25;3.50;;;12.40;86.80;;;;;;4999111;28;20035;-76
2021/09/30 08:21:24;;;;;;;11.38;3.65;;;12.50;86.50;;;;;;5008963;28;20536;-76
2021/09/30 08:23:50;;;;;;;9.35;3.05;;;12.50;87.30;;;;;;5011946;28;20046;-76
2021/09/30 08:26:19;;;;;;;12.68;3.47;;;12.60;86.80;;;;;;5007150;28;20397;-76
2021/09/30 08:28:50;;;;;;;11.07;3.55;;;12.60;86.40;;;;;;4992586;28;20034;-76
2021/09/30 08:31:16;;;;;;;12.40;3.83;;;12.70;85.60;;;;;;5000379;28;20079;-76
2021/09/30 08:33:42;;;;;;;13.70;3.85;;;12.70;85.90;;;;;;4978317;28;20478;-76
2021/09/30 08:36:13;;;;;;;8.85;3.53;;;12.80;86.00;;;;;;4991465;28;20031;-76
2021/09/30 08:38:40;;;;;;;10.68;3.22;;;12.90;85.90;;;;;;4992544;28;20023;-76
2021/09/30 08:41:07;;;;;;;12.07;3.58;;;13.10;85.00;;;;;;4990943;28;20080;-76
2021/09/30 08:43:33;;;;;;;9.52;3.03;;;13.30;84.90;;;;;;4992711;28;20034;-76
2021/09/30 08:45:58;;;;;;;9.02;3.17;;;13.40;85.00;;;;;;4975275;28;20483;-77
2021/09/30 08:48:25;;;;;;;10.55;3.17;;;13.50;84.50;;;;;;4991702;28;20428;-76
2021/09/30 08:50:51;;;;;;;9.30;3.15;;;13.60;83.30;;;;;;5002988;28;20034;-76
2021/09/30 08:53:17;;;;;;;9.73;3.00;;;13.70;82.80;;;;;;5011645;28;20528;-77
2021/09/30 08:55:43;;;;;;;13.00;2.97;;;13.70;82.70;;;;;;5002019;28;20034;-76
2021/09/30 08:58:09;;;;;;;13.55;3.30;;;13.80;82.70;;;;;;5011297;28;20050;-80
2021/09/30 09:00:39;;;;;;;12.98;3.40;;;13.90;83.30;;;;;;5012496;28;20026;-77
2021/09/30 09:03:05;;;;;;;7.63;3.13;;;14.00;82.50;;;;;;5010609;28;20030;-76
2021/09/30 09:05:31;;;;;;;7.85;2.92;;;14.10;81.80;;;;;;4995876;28;20045;-76
2021/09/30 09:07:59;;;;;;;10.25;3.30;;;14.20;81.90;;;;;;4994336;28;20431;-76
2021/09/30 09:10:31;;;;;;;11.02;3.00;;;14.30;81.60;;;;;;5009538;28;20026;-76
2021/09/30 09:13:16;;;;;;;8.73;2.85;;;14.40;81.00;;;;;;4996225;28;20030;-77
2021/09/30 09:15:47;;;;;;;9.98;3.15;;;14.50;80.90;;;;;;5010324;28;20060;-77
2021/09/30 09:18:17;;;;;;;12.50;3.28;;;14.60;81.20;;;;;;5010245;28;20026;-76
2021/09/30 09:20:48;;;;;;;8.63;2.63;;;14.70;81.40;;;;;;5011572;28;20044;-76
2021/09/30 09:23:14;;;;;;;14.05;3.20;;;14.70;80.90;;;;;;5005046;28;20052;-76
2021/09/30 09:25:40;;;;;;;10.10;3.28;;;14.60;80.90;;;;;;4992559;28;20057;-76
2021/09/30 09:28:06;;;;;;;9.90;3.10;;;14.50;80.00;;;;;;4990415;28;20042;-77
2021/09/30 09:30:42;;;;;;;12.68;2.72;;;14.50;81.10;;;;;;4991308;28;20032;-77
2021/09/30 09:33:16;;;;;;;9.50;2.92;;;14.50;81.70;;;;;;4992265;28;20739;-77
2021/09/30 09:36:01;;;;;;;10.05;2.97;;;14.60;81.10;;;;;;4990075;28;20117;-77
2021/09/30 09:38:47;;;;;;;10.15;2.25;;;14.70;80.40;;;;;;4990419;28;20034;-76
2021/09/30 09:41:29;;;;;;;8.23;2.03;;;14.90;79.50;;;;;;4990236;28;20383;-75
2021/09/30 09:43:57;;;;;;;8.93;2.25;;;15.10;78.00;;;;;;4991598;28;20382;-76
2021/09/30 09:46:28;;;;;;;9.02;2.20;;;15.20;74.20;;;;;;4991447;28;20033;-75
2021/09/30 09:49:08;;;;;;;7.50;2.50;;;15.10;75.70;;;;;;4990109;28;20076;-76
2021/09/30 09:51:45;;;;;;;8.50;2.20;;;15.00;75.60;;;;;;4990863;28;20026;-75
2021/09/30 09:54:14;;;;;;;6.57;2.03;;;15.00;76.30;;;;;;4990698;28;20109;-76
2021/09/30 09:56:40;;;;;;;10.90;2.30;;;15.10;76.40;;;;;;4990746;28;20038;-76
2021/09/30 09:59:06;;;;;;;10.30;2.30;;;15.20;77.20;;;;;;4996076;28;20050;-75
2021/09/30 10:01:43;;;;;;;6.88;2.15;;;15.20;77.30;;;;;;5003962;28;20475;-75
2021/09/30 10:04:10;;;;;;;7.25;2.03;;;15.30;75.90;;;;;;4990740;28;20568;-76
2021/09/30 10:06:37;;;;;;;16.13;2.20;;;15.20;74.90;;;;;;4989491;28;20040;-76
2021/09/30 10:09:06;;;;;;;11.57;2.00;;;15.20;75.90;;;;;;5006928;28;20042;-75
2021/09/30 10:11:35;;;;;;;8.60;2.00;;;15.10;73.90;;;;;;5062972;28;20117;-76
2021/09/30 10:14:03;;;;;;;8.82;2.10;;;15.10;74.50;;;;;;5002362;28;20034;-76
2021/09/30 10:16:31;;;;;;;10.48;1.90;;;15.10;74.60;;;;;;4995929;28;20079;-76
2021/09/30 10:18:59;;;;;;;6.32;1.50;;;15.10;75.30;;;;;;4994375;28;20480;-76
2021/09/30 10:21:26;;;;;;;11.10;2.13;;;15.10;75.90;;;;;;4989098;28;20030;-76
2021/09/30 10:23:57;;;;;;;11.43;1.73;;;15.10;74.20;;;;;;4989541;28;20372;-76
2021/09/30 10:26:27;;;;;;;7.85;2.13;;;15.10;74.60;;;;;;4990453;28;20030;-76
2021/09/30 10:28:53;;;;;;;6.50;1.30;;;15.10;76.30;;;;;;4990955;28;20129;-76
2021/09/30 10:31:39;;;;;;;5.63;1.33;;;15.20;74.10;;;;;;4971890;28;20573;-76
2021/09/30 10:34:07;;;;;;;12.27;1.42;;;15.30;73.90;;;;;;5002261;28;20041;-76
2021/09/30 10:36:34;;;;;;;5.78;1.30;;;15.30;74.00;;;;;;5057390;28;20034;-76
2021/09/30 10:39:25;;;;;;;8.55;1.85;;;15.30;74.20;;;;;;4988262;28;20031;-76
2021/09/30 10:41:59;;;;;;;7.78;1.63;;;15.40;75.10;;;;;;4971479;28;20436;-76
2021/09/30 10:44:30;;;;;;;7.38;1.73;;;15.60;75.20;;;;;;4971282;28;20438;-76
2021/09/30 10:46:58;;;;;;;7.57;1.42;;;15.70;73.90;;;;;;4985664;28;20137;-76
2021/09/30 10:49:42;;;;;;;8.50;1.60;;;15.80;73.20;;;;;;4986973;28;20686;-75
2021/09/30 10:52:25;;;;;;;8.32;1.35;;;15.80;72.70;;;;;;4970293;28;20023;-76
2021/09/30 10:55:17;;;;;;;10.88;1.90;;;15.90;73.10;;;;;;4971457;28;20395;-75
2021/09/30 10:57:48;;;;;;;6.50;1.30;;;15.90;72.60;;;;;;4975904;28;20065;-76
2021/09/30 11:00:17;;;;;;;8.75;1.55;;;15.90;72.60;;;;;;4978962;28;20033;-75
2021/09/30 11:03:01;;;;;;;10.52;1.52;;;15.90;72.30;;;;;;4989833;28;20050;-76
2021/09/30 11:05:30;;;;;;;6.72;1.35;;;15.90;72.50;;;;;;4990629;28;20487;-76
2021/09/30 11:08:25;;;;;;;9.40;1.65;;;16.00;73.70;;;;;;4989585;28;20030;-75
2021/09/30 11:11:02;;;;;;;9.00;1.60;;;16.00;73.60;;;;;;5002822;28;20030;-78
2021/09/30 11:13:30;;;;;;;10.63;1.63;;;16.00;74.10;;;;;;5009529;28;20486;-78
2021/09/30 11:16:26;;;;;;;8.38;1.30;;;16.00;71.90;;;;;;4970961;28;20042;-77
2021/09/30 11:18:56;;;;;;;7.75;1.20;;;15.90;72.60;;;;;;4993442;28;20042;-77
2021/09/30 11:21:35;;;;;;;4.00;0.88;;;15.90;71.50;;;;;;5003158;28;20090;-78
2021/09/30 11:24:05;;;;;;;11.02;2.22;;;15.90;72.00;;;;;;5008960;28;20421;-78
2021/09/30 11:26:49;;;;;;;3.47;1.00;;;15.90;71.10;;;;;;5008448;28;20051;-78
2021/09/30 11:29:26;;;;;;;4.78;1.15;;;15.90;71.40;;;;;;5000424;28;20031;-77
2021/09/30 11:31:57;;;;;;;3.70;0.90;;;15.90;72.50;;;;;;4989111;28;20022;-78
2021/09/30 11:34:24;;;;;;;7.20;1.42;;;16.00;71.70;;;;;;5003159;28;20039;-77
2021/09/30 11:36:51;;;;;;;7.63;1.70;;;16.00;71.70;;;;;;4969044;28;20741;-77
2021/09/30 11:39:18;;;;;;;5.85;1.02;;;16.10;70.70;;;;;;5007624;28;20117;-77
2021/09/30 11:41:46;;;;;;;5.13;0.90;;;16.10;71.20;;;;;;5006639;28;20113;-78
2021/09/30 11:44:20;;;;;;;6.90;1.52;;;16.20;70.50;;;;;;4996890;28;20395;-78
2021/09/30 11:46:51;;;;;;;6.05;1.30;;;16.20;70.60;;;;;;4988168;28;20402;-79
2021/09/30 11:49:18;;;;;;;8.27;1.65;;;16.20;71.30;;;;;;5011051;28;20028;-77
2021/09/30 11:51:55;;;;;;;4.85;1.17;;;16.20;70.40;;;;;;4992214;28;20060;-77
2021/09/30 11:54:22;;;;;;;7.25;1.23;;;16.20;70.30;;;;;;4989551;28;20030;-78
2021/09/30 11:56:51;;;;;;;10.68;1.10;;;16.30;70.90;;;;;;4989607;28;20022;-78
2021/09/30 11:59:20;;;;;;;5.18;1.13;;;16.30;71.40;;;;;;4989663;28;20462;-78
2021/09/30 12:01:48;;;;;;;8.47;1.00;;;16.30;70.60;;;;;;4988848;28;20442;-78
2021/09/30 12:04:28;;;;;;;6.93;1.30;;;16.30;70.00;;;;;;4970142;28;20506;-78
2021/09/30 12:06:54;;;;;;;7.43;0.95;;;16.30;70.30;;;;;;5003526;28;20022;-78
2021/09/30 12:09:20;;;;;;;5.43;1.20;;;16.30;71.30;;;;;;4983297;28;20027;-78
2021/09/30 12:12:03;;;;;;;5.88;1.10;;;16.20;69.20;;;;;;4989541;28;20558;-78
2021/09/30 12:14:41;;;;;;;2.55;0.73;;;16.20;70.10;;;;;;5008882;28;20132;-78
2021/09/30 12:17:12;;;;;;;5.25;1.25;;;16.10;70.80;;;;;;4988363;28;20030;-78
2021/09/30 12:19:45;;;;;;;4.60;1.15;;;16.10;71.80;;;;;;4988699;28;20035;-78
2021/09/30 12:22:16;;;;;;;7.82;1.33;;;16.10;70.90;;;;;;4990537;28;20048;-78
2021/09/30 12:24:54;;;;;;;8.25;1.02;;;16.10;71.40;;;;;;4986483;28;20105;-78
2021/09/30 12:27:23;;;;;;;6.90;1.10;;;16.10;72.00;;;;;;4969971;28;20062;-78
2021/09/30 12:29:52;;;;;;;5.45;1.17;;;16.10;72.10;;;;;;4970962;28;20034;-78
2021/09/30 12:32:22;;;;;;;7.47;1.25;;;16.00;72.20;;;;;;4999293;28;20041;-77
2021/09/30 12:34:55;;;;;;;9.10;1.02;;;16.00;72.20;;;;;;4989834;28;20458;-77
2021/09/30 12:37:32;;;;;;;6.05;1.05;;;16.00;73.10;;;;;;4989998;28;20109;-77
2021/09/30 12:40:15;;;;;;;6.90;1.10;;;16.00;72.10;;;;;;4989936;28;20030;-76
2021/09/30 12:42:59;;;;;;;6.40;1.10;;;15.90;72.00;;;;;;4990570;28;20091;-77
2021/09/30 12:45:26;;;;;;;5.15;1.17;;;16.00;72.80;;;;;;4996091;28;20473;-77
2021/09/30 12:48:08;;;;;;;8.23;1.20;;;16.00;72.00;;;;;;5004331;28;20036;-77
2021/09/30 12:50:36;;;;;;;6.93;1.38;;;15.90;71.70;;;;;;5009322;28;20058;-77
2021/09/30 12:53:03;;;;;;;6.13;1.13;;;16.00;72.30;;;;;;4998511;28;20053;-78
2021/09/30 12:55:30;;;;;;;5.88;1.30;;;16.00;71.50;;;;;;4989851;28;20041;-78
2021/09/30 12:57:57;;;;;;;6.53;1.17;;;16.00;71.90;;;;;;4988426;28;20053;-78
2021/09/30 13:00:24;;;;;;;7.65;1.42;;;16.00;72.60;;;;;;4989800;28;20080;-78
2021/09/30 13:02:55;;;;;;;6.97;1.10;;;15.90;72.20;;;;;;4993109;28;20022;-78
2021/09/30 13:05:21;;;;;;;7.07;1.05;;;15.90;73.00;;;;;;4991880;28;20436;-78
2021/09/30 13:07:48;;;;;;;5.05;1.23;;;16.00;73.10;;;;;;4980762;28;20479;-77
2021/09/30 13:10:16;;;;;;;8.73;1.20;;;16.00;72.50;;;;;;4972258;28;20031;-77
2021/09/30 13:13:20;;;;;;;4.88;0.93;;;16.00;71.50;;;;;;4973658;28;20023;-78
2021/09/30 13:15:47;;;;;;;8.07;1.10;;;16.00;71.50;;;;;;5028637;28;20831;-78
2021/09/30 13:18:15;;;;;;;10.95;1.30;;;16.10;71.50;;;;;;4999878;28;20049;-77
2021/09/30 13:20:43;;;;;;;7.07;1.83;;;16.10;71.70;;;;;;4995524;28;20045;-77
2021/09/30 13:23:10;;;;;;;8.18;1.60;;;16.10;71.90;;;;;;4992893;28;20722;-77
2021/09/30 13:25:37;;;;;;;6.22;1.88;;;16.10;72.20;;;;;;4992974;28;20079;-77
2021/09/30 13:28:03;;;;;;;10.48;1.27;;;16.10;71.10;;;;;;5012259;28;20034;-77
2021/09/30 13:30:32;;;;;;;7.15;1.20;;;16.10;71.30;;;;;;5010547;28;20030;-77
2021/09/30 13:33:00;;;;;;;6.53;1.50;;;16.10;71.40;;;;;;5010941;28;20030;-78
2021/09/30 13:35:29;;;;;;;8.02;1.30;;;16.10;71.60;;;;;;5009473;28;20038;-78
2021/09/30 13:37:56;;;;;;;6.53;1.77;;;16.10;71.50;;;;;;5012542;28;20098;-78
2021/09/30 13:40:22;;;;;;;10.23;1.50;;;16.10;72.50;;;;;;5011826;28;20029;-77
2021/09/30 13:42:49;;;;;;;9.13;1.52;;;16.00;72.40;;;;;;5012090;28;20037;-78
2021/09/30 13:45:16;;;;;;;11.02;1.67;;;16.00;72.60;;;;;;4983588;28;20956;-77
2021/09/30 13:47:42;;;;;;;10.00;1.40;;;16.00;71.80;;;;;;4972577;28;20403;-77
2021/09/30 13:50:11;;;;;;;7.55;1.23;;;16.00;73.10;;;;;;4972396;28;20027;-77
2021/09/30 13:52:37;;;;;;;7.97;1.38;;;16.00;72.80;;;;;;4972310;28;20551;-77
2021/09/30 13:55:03;;;;;;;5.93;1.42;;;16.10;72.90;;;;;;4972140;28;20109;-77
2021/09/30 13:57:33;;;;;;;6.45;1.35;;;16.20;73.30;;;;;;4972513;28;20043;-77
2021/09/30 13:59:59;;;;;;;6.13;1.17;;;16.30;74.00;;;;;;4971232;28;20127;-77
2021/09/30 14:02:25;;;;;;;6.50;1.40;;;16.40;73.30;;;;;;4987125;28;20535;-77
2021/09/30 14:04:50;;;;;;;5.63;1.05;;;16.50;72.80;;;;;;4991114;28;20026;-77
2021/09/30 14:07:16;;;;;;;5.55;1.20;;;16.50;71.90;;;;;;4991932;28;20019;-77
2021/09/30 14:09:41;;;;;;;7.55;1.10;;;16.40;71.50;;;;;;4990906;28;20122;-77
2021/09/30 14:12:07;;;;;;;7.20;1.50;;;16.40;72.30;;;;;;4991821;28;20623;-77
2021/09/30 14:14:34;;;;;;;9.90;1.45;;;16.30;71.70;;;;;;4992021;28;20042;-77
2021/09/30 14:16:59;;;;;;;9.43;1.40;;;16.30;71.80;;;;;;4999069;28;20036;-78
2021/09/30 14:19:26;;;;;;;7.45;1.48;;;16.30;72.40;;;;;;4998496;28;20034;-78
2021/09/30 14:21:56;;;;;;;5.82;1.30;;;16.30;72.50;;;;;;4993617;28;20030;-78
2021/09/30 14:24:22;;;;;;;4.90;1.27;;;16.30;72.70;;;;;;4990457;28;20030;-78
2021/09/30 14:26:48;;;;;;;7.85;1.75;;;16.30;72.40;;;;;;4971027;28;20074;-78
2021/09/30 14:29:14;;;;;;;8.75;1.70;;;16.30;72.10;;;;;;4980398;28;20531;-78
2021/09/30 14:31:40;;;;;;;8.48;1.40;;;16.40;72.80;;;;;;4991493;28;20027;-78
2021/09/30 14:34:06;;;;;;;9.75;1.52;;;16.40;73.90;;;;;;4994703;28;20041;-77
2021/09/30 14:36:31;;;;;;;5.35;1.25;;;16.40;73.60;;;;;;4997401;28;20172;-77
2021/09/30 14:38:57;;;;;;;7.55;1.15;;;16.30;71.40;;;;;;4991243;28;20038;-77
2021/09/30 14:41:24;;;;;;;7.88;1.30;;;16.30;72.30;;;;;;4990091;28;20034;-77
2021/09/30 14:43:50;;;;;;;10.52;1.60;;;16.30;73.00;;;;;;5007034;28;20505;-78
2021/09/30 14:46:17;;;;;;;6.72;1.30;;;16.30;74.00;;;;;;5011026;28;20086;-77
2021/09/30 14:48:43;;;;;;;8.55;1.27;;;16.30;73.80;;;;;;4971598;28;20492;-78
2021/09/30 14:51:11;;;;;;;7.88;1.40;;;16.40;73.60;;;;;;4972184;28;20088;-78
2021/09/30 14:53:37;;;;;;;6.55;1.10;;;16.50;72.50;;;;;;4991563;28;20026;-78
2021/09/30 14:56:04;;;;;;;11.98;2.22;;;16.50;72.70;;;;;;4989824;28;20511;-77
2021/09/30 14:58:30;;;;;;;11.32;1.08;;;16.50;73.70;;;;;;4990086;28;20059;-78
2021/09/30 15:00:58;;;;;;;7.95;0.95;;;16.50;73.10;;;;;;4990500;28;20036;-78
2021/09/30 15:03:24;;;;;;;8.00;1.95;;;16.50;72.90;;;;;;4989441;28;20036;-78
2021/09/30 15:05:49;;;;;;;5.10;1.10;;;16.50;72.40;;;;;;4990261;28;20034;-77
2021/09/30 15:08:15;;;;;;;9.00;1.30;;;16.50;72.80;;;;;;4973919;28;20072;-77
2021/09/30 15:10:41;;;;;;;8.93;1.63;;;16.40;73.20;;;;;;4990681;28;20070;-77
2021/09/30 15:13:07;;;;;;;11.13;1.40;;;16.40;72.10;;;;;;5068048;28;20067;-78
2021/09/30 15:15:33;;;;;;;7.78;1.50;;;16.30;72.10;;;;;;5066007;28;20445;-81
2021/09/30 15:23:03;;;;;;;7.25;1.25;;;16.20;72.60;;;;;;5004674;28;20041;-78
2021/09/30 15:25:29;;;;;;;7.50;1.35;;;16.10;72.70;;;;;;4991026;28;20053;-78
2021/09/30 15:27:56;;;;;;;10.85;1.67;;;16.20;72.80;;;;;;4990917;28;20034;-83
2021/09/30 15:30:23;;;;;;;16.67;3.75;;;16.20;72.80;;;;;;4989329;28;20038;-78
2021/09/30 15:32:50;;;;;;;11.45;1.80;;;16.20;73.50;;;;;;4987610;28;20026;-78
2021/09/30 15:35:16;;;;;;;9.38;1.35;;;16.20;73.30;;;;;;4970749;28;20441;-78
2021/09/30 15:37:41;;;;;;;6.72;1.20;;;16.20;73.40;;;;;;4989908;28;20102;-78
2021/09/30 15:40:08;;;;;;;6.75;1.23;;;16.20;73.60;;;;;;4990237;28;20153;-78
2021/09/30 15:42:34;;;;;;;7.22;1.48;;;16.20;73.10;;;;;;4989485;28;20455;-78
2021/09/30 15:44:59;;;;;;;8.32;1.20;;;16.10;73.10;;;;;;4989284;28;20045;-78
2021/09/30 15:47:26;;;;;;;8.40;1.10;;;16.10;72.90;;;;;;4990189;28;20038;-78
2021/09/30 15:49:52;;;;;;;6.38;1.17;;;16.10;72.80;;;;;;4988749;28;20109;-78
2021/09/30 15:52:18;;;;;;;4.20;1.23;;;16.00;73.00;;;;;;4988853;28;20034;-79
2021/09/30 15:54:44;;;;;;;5.85;1.13;;;16.00;73.40;;;;;;4989807;28;20033;-79